Time;durP1;ratioP1;P1;durP2;ratioP2;P2;SDS_P1;SDS_P2;PMS_P1;PMS_P2;Temp;Humidity;BMP_temperature;BMP_pressure;BME280_temperature;BME280_humidity;BME280_pressure;Samples;Min_cycle;Max_cycle;Signal;HPM_P1;HPM_P2
2022/09/23 00:01:10;;;;;;;;;;;;;;;10.99;71.25;101728.81;5044957;28;20407;-58
2022/09/23 00:03:37;;;;;;;;;;;;;;;10.99;71.36;101728.81;5047315;28;19991;-56
2022/09/23 00:06:04;;;;;;;;;;;;;;;11.01;71.22;101737.47;5045485;28;20063;-58
2022/09/23 00:08:29;;;;;;;;;;;;;;;11.02;71.38;101730.31;5046862;28;19916;-59
2022/09/23 00:10:55;;;;;;;;;;;;;;;11.02;70.79;101728.50;5045140;28;19917;-56
2022/09/23 00:13:20;;;;;;;;;;;;;;;11.03;71.30;101730.16;5045578;28;19917;-56
2022/09/23 00:15:45;;;;;;;;;;;;;;;11.01;71.03;101724.19;5047433;28;19970;-56
2022/09/23 00:18:11;;;;;;;;;;;;;;;11.01;70.96;101720.69;5045442;28;20442;-56
2022/09/23 00:20:36;;;;;;;;;;;;;;;10.99;71.16;101720.84;5045111;28;19925;-57
2022/09/23 00:23:01;;;;;;;;;;;;;;;10.99;70.83;101717.34;5046498;28;19916;-57
2022/09/23 00:25:28;;;;;;;;;;;;;;;10.98;70.97;101716.47;5045179;28;20025;-58
2022/09/23 00:27:54;;;;;;;;;;;;;;;10.98;71.04;101720.97;5047369;28;19917;-59
2022/09/23 00:30:19;;;;;;;;;;;;;;;10.95;71.57;101714.13;5043195;28;19928;-59
2022/09/23 00:32:44;;;;;;;;;;;;;;;10.91;71.58;101710.09;5046055;28;19923;-59
2022/09/23 00:35:09;;;;;;;;;;;;;;;10.89;71.40;101706.75;5044035;28;19921;-59
2022/09/23 00:37:34;;;;;;;;;;;;;;;10.84;71.91;101701.91;5046568;28;20004;-58
2022/09/23 00:40:00;;;;;;;;;;;;;;;10.81;71.52;101701.38;5045163;28;19917;-59
2022/09/23 00:42:25;;;;;;;;;;;;;;;10.81;71.43;101704.88;5045727;28;19921;-57
2022/09/23 00:44:51;;;;;;;;;;;;;;;10.82;71.03;101701.22;5042885;28;19979;-59
2022/09/23 00:47:19;;;;;;;;;;;;;;;10.82;71.15;101698.56;5043633;28;20047;-57
2022/09/23 00:49:46;;;;;;;;;;;;;;;10.82;71.23;101697.72;5044637;28;19995;-58
2022/09/23 00:52:14;;;;;;;;;;;;;;;10.82;71.46;101695.91;5044815;28;19921;-56
2022/09/23 00:54:40;;;;;;;;;;;;;;;10.81;71.49;101691.59;5046594;28;19920;-57
2022/09/23 00:57:06;;;;;;;;;;;;;;;10.78;71.46;101691.06;5045255;28;19924;-56
2022/09/23 00:59:32;;;;;;;;;;;;;;;10.76;71.49;101693.03;5045494;28;19920;-57
2022/09/23 01:01:59;;;;;;;;;;;;;;;10.74;71.49;101695.00;5046956;28;19928;-56
2022/09/23 01:04:25;;;;;;;;;;;;;;;10.71;71.49;101688.16;5043962;28;19921;-56
2022/09/23 01:06:50;;;;;;;;;;;;;;;10.69;71.41;101692.78;5043703;28;19928;-59
2022/09/23 01:09:16;;;;;;;;;;;;;;;10.67;72.11;101694.75;5043905;28;19925;-57
2022/09/23 01:11:48;;;;;;;;;;;;;;;10.64;71.64;101692.38;5043984;28;20392;-59
2022/09/23 01:14:25;;;;;;;;;;;;;;;10.61;71.63;101690.03;5046002;28;19920;-56
2022/09/23 01:17:06;;;;;;;;;;;;;;;10.59;71.72;101686.69;5045657;28;19916;-57
2022/09/23 01:19:45;;;;;;;;;;;;;;;10.54;71.63;101688.97;5046604;28;19917;-58
2022/09/23 01:22:19;;;;;;;;;;;;;;;10.57;72.05;101685.19;5042563;28;19917;-58
2022/09/23 01:24:46;;;;;;;;;;;;;;;10.57;71.76;101682.53;5039753;28;19917;-58
2022/09/23 01:27:18;;;;;;;;;;;;;;;10.58;72.00;101686.84;5044383;28;19925;-59
2022/09/23 01:30:02;;;;;;;;;;;;;;;10.56;71.96;101687.00;5043911;28;19970;-58
2022/09/23 01:32:51;;;;;;;;;;;;;;;10.52;71.88;101685.63;5042518;28;19927;-58
2022/09/23 01:35:16;;;;;;;;;;;;;;;10.52;71.78;101685.63;5015353;28;20012;-58
2022/09/23 01:37:41;;;;;;;;;;;;;;;10.51;71.75;101676.00;5045000;28;20011;-58
2022/09/23 01:40:16;;;;;;;;;;;;;;;10.51;72.05;101681.31;5044108;28;19920;-58
2022/09/23 01:42:46;;;;;;;;;;;;;;;10.53;71.83;101676.69;5043681;28;19944;-57
2022/09/23 01:45:18;;;;;;;;;;;;;;;10.54;72.10;101675.69;5042818;28;19925;-59
2022/09/23 01:47:55;;;;;;;;;;;;;;;10.55;71.99;101675.53;5043239;28;20011;-56
2022/09/23 01:53:25;;;;;;;;;;;;;;;10.62;72.20;101669.63;5038812;28;20055;-56
2022/09/23 01:55:55;;;;;;;;;;;;;;;10.63;72.02;101676.59;5041510;28;19921;-58
2022/09/23 01:58:28;;;;;;;;;;;;;;;10.63;72.15;101676.59;5044414;28;19955;-57
2022/09/23 02:01:05;;;;;;;;;;;;;;;10.62;72.21;101673.13;5043666;28;19912;-56
2022/09/23 02:03:35;;;;;;;;;;;;;;;10.61;72.17;101673.28;5046324;28;19917;-58
2022/09/23 02:06:03;;;;;;;;;;;;;;;10.58;72.05;101671.75;5042797;28;20490;-59
2022/09/23 02:08:33;;;;;;;;;;;;;;;10.58;72.37;101666.44;5041905;28;20000;-59
2022/09/23 02:11:05;;;;;;;;;;;;;;;10.59;72.35;101670.75;5043137;28;19913;-59
2022/09/23 02:13:35;;;;;;;;;;;;;;;10.60;72.12;101664.47;5044205;28;20388;-58
2022/09/23 02:16:05;;;;;;;;;;;;;;;10.60;72.38;101659.16;5045677;28;20376;-60
2022/09/23 02:18:32;;;;;;;;;;;;;;;10.57;72.07;101663.94;5043390;28;19923;-57
2022/09/23 02:21:01;;;;;;;;;;;;;;;10.50;72.15;101656.56;5044266;28;20023;-58
2022/09/23 02:23:30;;;;;;;;;;;;;;;10.49;72.06;101654.06;5042597;28;19966;-58
2022/09/23 02:26:13;;;;;;;;;;;;;;;10.48;72.10;101653.22;5040260;28;19994;-59
2022/09/23 02:28:50;;;;;;;;;;;;;;;10.46;72.34;101647.25;5046399;28;19917;-58
2022/09/23 02:31:30;;;;;;;;;;;;;;;10.45;72.54;101648.22;5046327;28;19920;-58
2022/09/23 02:34:00;;;;;;;;;;;;;;;10.45;72.68;101642.09;5041786;28;19971;-59
2022/09/23 02:36:52;;;;;;;;;;;;;;;10.44;72.85;101638.59;5042624;28;19921;-59
2022/09/23 02:39:21;;;;;;;;;;;;;;;10.46;72.79;101643.75;5019212;28;20008;-58
2022/09/23 02:42:01;;;;;;;;;;;;;;;10.46;72.81;101638.44;5044314;28;19970;-58
2022/09/23 02:44:27;;;;;;;;;;;;;;;10.45;72.71;101636.75;5043536;28;20043;-58
2022/09/23 02:46:52;;;;;;;;;;;;;;;10.45;72.68;101632.28;5043491;28;19927;-56
2022/09/23 02:49:25;;;;;;;;;;;;;;;10.46;72.56;101630.47;5042145;28;19917;-58
2022/09/23 02:51:50;;;;;;;;;;;;;;;10.45;72.51;101626.16;5041188;28;19917;-59
2022/09/23 02:54:18;;;;;;;;;;;;;;;10.43;72.79;101622.81;5037619;28;19931;-56
2022/09/23 02:56:43;;;;;;;;;;;;;;;10.42;72.74;101614.00;5047807;28;19923;-58
2022/09/23 02:59:08;;;;;;;;;;;;;;;10.43;72.99;101617.50;5044858;28;19913;-58
2022/09/23 03:01:53;;;;;;;;;;;;;;;10.41;72.61;101612.34;5047718;28;19979;-58
2022/09/23 03:04:37;;;;;;;;;;;;;;;10.39;72.79;101613.44;5041895;28;20054;-58
2022/09/23 03:07:14;;;;;;;;;;;;;;;10.36;72.79;101605.78;5043609;28;19917;-56
2022/09/23 03:09:56;;;;;;;;;;;;;;;10.35;72.70;101609.44;5045135;28;19913;-56
2022/09/23 03:12:33;;;;;;;;;;;;;;;10.31;72.96;101608.91;5045531;28;19935;-56
2022/09/23 03:15:04;;;;;;;;;;;;;;;10.30;73.07;101604.56;5046682;28;19916;-55
2022/09/23 03:17:32;;;;;;;;;;;;;;;10.27;73.07;101602.22;5046466;28;20323;-57
2022/09/23 03:20:01;;;;;;;;;;;;;;;10.24;73.06;101602.53;5048290;28;19917;-57
2022/09/23 03:22:34;;;;;;;;;;;;;;;10.23;73.02;101596.38;5047793;28;19920;-56
2022/09/23 03:25:02;;;;;;;;;;;;;;;10.23;73.06;101600.84;5048677;28;19924;-56
2022/09/23 03:27:29;;;;;;;;;;;;;;;10.24;73.17;101597.22;5051149;28;20466;-55
2022/09/23 03:29:55;;;;;;;;;;;;;;;10.24;73.17;101598.03;5044920;28;19928;-57
2022/09/23 03:32:22;;;;;;;;;;;;;;;10.23;72.86;101601.69;5043923;28;19913;-58
2022/09/23 03:34:49;;;;;;;;;;;;;;;10.20;73.38;101602.00;5046268;28;19971;-57
2022/09/23 03:37:19;;;;;;;;;;;;;;;10.18;73.29;101605.75;5041669;28;19912;-56
2022/09/23 03:39:50;;;;;;;;;;;;;;;10.16;72.79;101607.72;5045885;28;19921;-55
2022/09/23 03:42:18;;;;;;;;;;;;;;;10.16;72.96;101602.41;5046287;28;19913;-56
2022/09/23 03:44:44;;;;;;;;;;;;;;;10.16;73.18;101610.38;5047893;28;20325;-57
2022/09/23 03:47:11;;;;;;;;;;;;;;;10.12;73.27;101604.53;5047254;28;19917;-57
2022/09/23 03:49:38;;;;;;;;;;;;;;;10.07;73.33;101603.28;5042945;28;19917;-57
2022/09/23 03:52:03;;;;;;;;;;;;;;;10.02;73.67;101600.25;5050405;28;20407;-57
2022/09/23 03:54:29;;;;;;;;;;;;;;;9.96;73.54;101596.38;5046916;28;19917;-57
2022/09/23 03:56:56;;;;;;;;;;;;;;;9.93;73.40;101588.72;5046991;28;19998;-57
2022/09/23 03:59:21;;;;;;;;;;;;;;;9.93;73.51;101589.53;5045254;28;20649;-57
2022/09/23 04:01:47;;;;;;;;;;;;;;;9.91;73.93;101580.06;5046464;28;19999;-57
2022/09/23 04:04:12;;;;;;;;;;;;;;;9.89;73.58;101582.03;5045973;28;19928;-56
2022/09/23 04:06:37;;;;;;;;;;;;;;;9.89;73.49;101587.34;5047228;28;20500;-56
2022/09/23 04:09:02;;;;;;;;;;;;;;;9.87;73.67;101584.84;5045343;28;19920;-56
2022/09/23 04:11:28;;;;;;;;;;;;;;;9.87;73.82;101584.00;5045267;28;19917;-59
2022/09/23 04:13:56;;;;;;;;;;;;;;;9.83;74.07;101577.28;5045677;28;20000;-58
2022/09/23 04:16:21;;;;;;;;;;;;;;;9.81;74.05;101589.88;5045833;28;20086;-58
2022/09/23 04:18:47;;;;;;;;;;;;;;;9.77;74.12;101591.97;5046357;28;20042;-58
2022/09/23 04:21:12;;;;;;;;;;;;;;;9.73;74.29;101589.78;5040230;28;19916;-59
2022/09/23 04:23:37;;;;;;;;;;;;;;;9.68;74.28;101586.72;5049363;28;19931;-59
2022/09/23 04:26:03;;;;;;;;;;;;;;;9.65;74.19;101584.38;5041206;28;20435;-59
2022/09/23 04:28:29;;;;;;;;;;;;;;;9.62;74.48;101580.19;5047010;28;19916;-58
2022/09/23 04:30:56;;;;;;;;;;;;;;;9.59;74.86;101580.50;5046556;28;20479;-59
2022/09/23 04:33:21;;;;;;;;;;;;;;;9.54;74.30;101588.91;5044660;28;19951;-58
2022/09/23 04:35:49;;;;;;;;;;;;;;;9.50;74.64;101587.47;5046705;28;20445;-58
2022/09/23 04:38:14;;;;;;;;;;;;;;;9.48;74.81;101586.78;5049879;28;20327;-58
2022/09/23 04:40:39;;;;;;;;;;;;;;;9.45;74.68;101588.91;5047562;28;19994;-57
2022/09/23 04:43:04;;;;;;;;;;;;;;;9.44;75.01;101580.13;5047870;28;19916;-59
2022/09/23 04:45:30;;;;;;;;;;;;;;;9.42;74.72;101584.72;5047194;28;20469;-59
2022/09/23 04:47:57;;;;;;;;;;;;;;;9.44;74.67;101576.63;5044264;28;19917;-59
2022/09/23 04:50:22;;;;;;;;;;;;;;;9.44;74.96;101579.28;5046446;28;19976;-59
2022/09/23 04:52:47;;;;;;;;;;;;;;;9.43;75.58;101578.44;5045413;28;20022;-59
2022/09/23 04:55:12;;;;;;;;;;;;;;;9.43;75.28;101569.66;5045401;28;19950;-59
2022/09/23 04:57:37;;;;;;;;;;;;;;;9.43;75.29;101572.31;5045868;28;20487;-58
2022/09/23 05:00:03;;;;;;;;;;;;;;;9.43;75.14;101570.50;5041963;28;19955;-58
2022/09/23 05:02:28;;;;;;;;;;;;;;;9.41;75.57;101567.16;5046008;28;20300;-58
2022/09/23 05:04:54;;;;;;;;;;;;;;;9.40;75.42;101559.34;5044016;28;20300;-58
2022/09/23 05:07:19;;;;;;;;;;;;;;;9.39;75.62;101562.97;5045213;28;19928;-57
2022/09/23 05:09:44;;;;;;;;;;;;;;;9.41;75.30;101567.16;5046042;28;19932;-59
2022/09/23 05:12:10;;;;;;;;;;;;;;;9.44;75.41;101568.69;5040862;28;19925;-59
2022/09/23 05:14:35;;;;;;;;;;;;;;;9.46;75.21;101561.41;5046663;28;20372;-57
2022/09/23 05:17:00;;;;;;;;;;;;;;;9.48;75.42;101570.88;5041959;28;20523;-59
2022/09/23 05:19:25;;;;;;;;;;;;;;;9.52;75.35;101574.09;5044851;28;19921;-58
2022/09/23 05:21:50;;;;;;;;;;;;;;;9.54;75.70;101574.78;5043611;28;19916;-59
2022/09/23 05:24:16;;;;;;;;;;;;;;;9.56;75.64;101573.69;5043938;28;19956;-58
2022/09/23 05:26:41;;;;;;;;;;;;;;;9.58;75.86;101578.81;5049514;28;19949;-58
2022/09/23 05:29:07;;;;;;;;;;;;;;;9.57;75.88;101578.00;5051860;28;19920;-59
2022/09/23 05:31:32;;;;;;;;;;;;;;;9.58;75.87;101574.34;5049491;28;20004;-57
2022/09/23 05:33:59;;;;;;;;;;;;;;;9.60;75.67;101580.34;5045578;28;19913;-58
2022/09/23 05:36:25;;;;;;;;;;;;;;;9.61;75.52;101578.53;5043479;28;20018;-59
2022/09/23 05:38:50;;;;;;;;;;;;;;;9.61;75.92;101582.03;5046334;28;19967;-59
2022/09/23 05:41:16;;;;;;;;;;;;;;;9.63;75.62;101588.00;5048986;28;20006;-59
2022/09/23 05:43:41;;;;;;;;;;;;;;;9.67;75.67;101585.06;5043905;28;20014;-59
2022/09/23 05:46:10;;;;;;;;;;;;;;;9.69;75.74;101591.88;5049914;28;19920;-58
2022/09/23 05:48:36;;;;;;;;;;;;;;;9.72;75.80;101588.94;5046312;28;19995;-58
2022/09/23 05:51:02;;;;;;;;;;;;;;;9.76;75.71;101586.81;5045869;28;20018;-59
2022/09/23 05:53:28;;;;;;;;;;;;;;;9.78;75.93;101592.81;5044039;28;19999;-58
2022/09/23 05:55:53;;;;;;;;;;;;;;;9.78;75.85;101590.16;5048493;28;19913;-59
2022/09/23 05:58:19;;;;;;;;;;;;;;;9.78;75.94;101588.34;5047011;28;19917;-58
2022/09/23 06:00:45;;;;;;;;;;;;;;;9.81;75.66;101592.53;5046441;28;19928;-59
2022/09/23 06:03:14;;;;;;;;;;;;;;;9.83;75.83;101588.78;5048955;28;19913;-59
2022/09/23 06:05:39;;;;;;;;;;;;;;;9.87;75.53;101586.66;5049481;28;20288;-59
2022/09/23 06:08:05;;;;;;;;;;;;;;;9.90;75.50;101581.88;5042786;28;20394;-59
2022/09/23 06:10:34;;;;;;;;;;;;;;;9.92;76.04;101585.22;5043657;28;19916;-59
2022/09/23 06:12:59;;;;;;;;;;;;;;;9.93;75.73;101586.06;5039598;28;19917;-59
2022/09/23 06:15:25;;;;;;;;;;;;;;;9.97;76.14;101576.81;5042689;28;19959;-59
2022/09/23 06:17:50;;;;;;;;;;;;;;;9.98;76.31;101581.13;5044290;28;20372;-59
2022/09/23 06:20:15;;;;;;;;;;;;;;;10.02;75.75;101579.00;5042476;28;19935;-59
2022/09/23 06:22:40;;;;;;;;;;;;;;;10.04;75.67;101580.53;5045440;28;19920;-60
2022/09/23 06:25:05;;;;;;;;;;;;;;;10.07;75.45;101577.56;5044081;28;19921;-60
2022/09/23 06:27:31;;;;;;;;;;;;;;;10.10;75.51;101577.28;5043562;28;19924;-60
2022/09/23 06:29:56;;;;;;;;;;;;;;;10.13;75.72;101576.16;5044880;28;20044;-58
2022/09/23 06:32:21;;;;;;;;;;;;;;;10.16;75.54;101581.19;5045279;28;19925;-58
2022/09/23 06:34:47;;;;;;;;;;;;;;;10.19;75.76;101568.44;5043416;28;19921;-58
2022/09/23 06:37:12;;;;;;;;;;;;;;;10.23;76.09;101572.50;5048818;28;19940;-60
2022/09/23 06:39:37;;;;;;;;;;;;;;;10.26;76.16;101574.00;5048175;28;19928;-60
2022/09/23 06:42:05;;;;;;;;;;;;;;;10.31;76.35;101571.72;5041639;28;19920;-60
2022/09/23 06:44:30;;;;;;;;;;;;;;;10.35;76.37;101572.25;5042400;28;19978;-60
2022/09/23 06:46:55;;;;;;;;;;;;;;;10.40;76.55;101573.47;5043530;28;19921;-58
2022/09/23 06:49:21;;;;;;;;;;;;;;;10.39;76.48;101574.44;5046932;28;19912;-60
2022/09/23 06:51:46;;;;;;;;;;;;;;;10.43;76.60;101575.00;5045957;28;20050;-59
2022/09/23 06:54:12;;;;;;;;;;;;;;;10.46;76.47;101580.03;5045145;28;20300;-60
2022/09/23 06:56:37;;;;;;;;;;;;;;;10.46;76.66;101577.38;5045436;28;19916;-60
2022/09/23 06:59:02;;;;;;;;;;;;;;;10.44;76.75;101579.34;5045326;28;20014;-59
2022/09/23 07:01:28;;;;;;;;;;;;;;;10.46;76.66;101574.72;5050312;28;19917;-60
2022/09/23 07:03:53;;;;;;;;;;;;;;;10.46;76.75;101572.06;5048172;28;20031;-60
2022/09/23 07:06:18;;;;;;;;;;;;;;;10.44;76.59;101571.38;5045440;28;19925;-59
2022/09/23 07:08:45;;;;;;;;;;;;;;;10.40;76.83;101573.47;5046914;28;19913;-59
2022/09/23 07:11:12;;;;;;;;;;;;;;;10.41;76.67;101566.38;5048591;28;19920;-57
2022/09/23 07:13:38;;;;;;;;;;;;;;;10.45;76.98;101567.72;5040557;28;19924;-58
2022/09/23 07:16:04;;;;;;;;;;;;;;;10.49;76.85;101572.56;5041580;28;19917;-59
2022/09/23 07:18:30;;;;;;;;;;;;;;;10.58;76.44;101576.13;5040098;28;20565;-59
2022/09/23 07:20:56;;;;;;;;;;;;;;;10.66;76.47;101564.72;5041801;28;19923;-59
2022/09/23 07:23:22;;;;;;;;;;;;;;;10.73;76.81;101576.44;5046740;28;19919;-59
2022/09/23 07:25:50;;;;;;;;;;;;;;;10.80;76.54;101577.50;5049094;28;19916;-57
2022/09/23 07:28:15;;;;;;;;;;;;;;;10.89;76.31;101567.75;5048353;28;20003;-58
2022/09/23 07:30:42;;;;;;;;;;;;;;;10.94;76.57;101574.25;5046108;28;20028;-57
2022/09/23 07:33:07;;;;;;;;;;;;;;;10.97;76.70;101573.94;5046110;28;19931;-57
2022/09/23 07:35:32;;;;;;;;;;;;;;;10.94;77.15;101570.78;5047772;28;19925;-59
2022/09/23 07:37:58;;;;;;;;;;;;;;;10.91;76.89;101573.75;5050824;28;19963;-59
2022/09/23 07:40:23;;;;;;;;;;;;;;;10.89;76.74;101575.72;5047554;28;19915;-59
2022/09/23 07:42:48;;;;;;;;;;;;;;;10.85;76.87;101569.88;5050766;28;19962;-58
2022/09/23 07:45:14;;;;;;;;;;;;;;;10.85;76.96;101572.53;5049278;28;19967;-59
2022/09/23 07:47:39;;;;;;;;;;;;;;;10.84;76.76;101573.53;5055475;28;19961;-59
2022/09/23 07:50:05;;;;;;;;;;;;;;;10.84;76.83;101578.84;5056384;28;19912;-59
2022/09/23 07:52:30;;;;;;;;;;;;;;;10.86;76.96;101575.03;5047862;28;19924;-58
2022/09/23 07:54:55;;;;;;;;;;;;;;;10.89;77.09;101575.72;5051254;28;19982;-59
2022/09/23 07:57:21;;;;;;;;;;;;;;;10.95;76.87;101585.72;5051633;28;20010;-59
2022/09/23 07:59:46;;;;;;;;;;;;;;;11.00;77.00;101586.13;5046837;28;19991;-59
2022/09/23 08:02:13;;;;;;;;;;;;;;;11.07;77.30;101581.84;5053296;28;20277;-59
2022/09/23 08:04:38;;;;;;;;;;;;;;;11.15;77.34;101587.22;5042616;28;20437;-59
2022/09/23 08:07:04;;;;;;;;;;;;;;;11.24;77.31;101590.75;5048351;28;19921;-59
2022/09/23 08:09:31;;;;;;;;;;;;;;;11.30;77.14;101588.31;5052067;28;20404;-58
2022/09/23 08:11:57;;;;;;;;;;;;;;;11.39;77.47;101590.03;5047417;28;19912;-60
2022/09/23 08:14:22;;;;;;;;;;;;;;;11.45;77.86;101581.41;5047191;28;19967;-58
2022/09/23 08:16:48;;;;;;;;;;;;;;;11.49;77.73;101582.75;5047405;28;19920;-59
2022/09/23 08:19:13;;;;;;;;;;;;;;;11.57;77.70;101583.81;5051203;28;19927;-58
2022/09/23 08:21:40;;;;;;;;;;;;;;;11.62;77.36;101581.50;5044715;28;19931;-59
2022/09/23 08:24:06;;;;;;;;;;;;;;;11.71;77.70;101585.88;5039188;28;20506;-59
2022/09/23 08:26:33;;;;;;;;;;;;;;;11.81;77.81;101589.25;5049524;28;21270;-59
2022/09/23 08:28:58;;;;;;;;;;;;;;;11.85;77.48;101593.25;5050929;28;19917;-59
2022/09/23 08:31:23;;;;;;;;;;;;;;;11.90;77.10;101593.63;5049151;28;20426;-59
2022/09/23 08:33:52;;;;;;;;;;;;;;;11.95;77.19;101582.50;5048630;28;20330;-59
2022/09/23 08:36:17;;;;;;;;;;;;;;;12.01;77.02;101584.50;5051736;28;19920;-58
2022/09/23 08:38:43;;;;;;;;;;;;;;;12.08;77.02;101586.34;5046764;28;19913;-59
2022/09/23 08:41:15;;;;;;;;;;;;;;;12.18;77.23;101590.72;5049178;28;19928;-58
2022/09/23 08:43:45;;;;;;;;;;;;;;;12.29;77.29;101590.41;5050279;28;20329;-58
2022/09/23 08:46:10;;;;;;;;;;;;;;;12.38;77.32;101579.59;5051933;28;19928;-59
2022/09/23 08:48:39;;;;;;;;;;;;;;;12.46;76.80;101589.47;5050723;28;20035;-59
2022/09/23 08:51:06;;;;;;;;;;;;;;;12.55;76.42;101584.97;5050398;28;19919;-59
2022/09/23 08:53:33;;;;;;;;;;;;;;;12.61;76.46;101587.78;5049445;28;19958;-60
2022/09/23 08:55:59;;;;;;;;;;;;;;;12.65;75.69;101583.78;5050618;28;19916;-60
2022/09/23 08:58:43;;;;;;;;;;;;;;;12.73;75.84;101583.00;5051170;28;20020;-59
2022/09/23 09:01:14;;;;;;;;;;;;;;;12.83;75.45;101580.16;5050812;28;19948;-58
2022/09/23 09:03:43;;;;;;;;;;;;;;;12.95;75.73;101578.78;5050290;28;19912;-59
2022/09/23 09:06:14;;;;;;;;;;;;;;;13.06;75.08;101578.47;5052200;28;19921;-59
2022/09/23 09:08:40;;;;;;;;;;;;;;;13.21;75.05;101579.47;5050019;28;19912;-59
2022/09/23 09:11:06;;;;;;;;;;;;;;;13.37;74.71;101575.09;5050136;28;19991;-59
2022/09/23 09:13:32;;;;;;;;;;;;;;;13.49;73.99;101573.72;5054394;28;19948;-59
2022/09/23 09:16:18;;;;;;;;;;;;;;;13.61;73.22;101573.19;5050332;28;19912;-60
2022/09/23 09:18:52;;;;;;;;;;;;;;;13.73;73.04;101562.97;5044417;28;19928;-59
2022/09/23 09:21:20;;;;;;;;;;;;;;;13.84;72.02;101556.41;5047495;28;20560;-60
2022/09/23 09:23:55;;;;;;;;;;;;;;;13.94;71.50;101565.88;5050532;28;19978;-59
2022/09/23 09:26:33;;;;;;;;;;;;;;;14.05;71.11;101563.81;5049737;28;19924;-60
2022/09/23 09:29:12;;;;;;;;;;;;;;;14.20;71.11;101567.41;5050076;28;19921;-60
2022/09/23 09:31:40;;;;;;;;;;;;;;;14.36;71.45;101564.63;5049627;28;19925;-59
2022/09/23 09:34:25;;;;;;;;;;;;;;;14.53;70.63;101560.03;5047319;28;19913;-58
2022/09/23 09:37:10;;;;;;;;;;;;;;;14.76;70.49;101560.00;5051623;28;20372;-60
2022/09/23 09:39:35;;;;;;;;;;;;;;;14.94;69.44;101563.19;5043958;28;19944;-58
2022/09/23 09:42:01;;;;;;;;;;;;;;;15.02;68.73;101556.91;5046538;28;19968;-57
2022/09/23 09:44:39;;;;;;;;;;;;;;;15.13;68.87;101549.28;5048466;28;19955;-56
2022/09/23 09:47:14;;;;;;;;;;;;;;;15.25;68.47;101554.16;5049902;28;19923;-57
2022/09/23 09:49:41;;;;;;;;;;;;;;;15.34;68.05;101553.09;5050087;28;19916;-59
2022/09/23 09:52:11;;;;;;;;;;;;;;;15.40;67.16;101560.38;5048830;28;19913;-58
2022/09/23 09:54:37;;;;;;;;;;;;;;;15.45;66.71;101556.13;5047417;28;19913;-59
2022/09/23 09:57:03;;;;;;;;;;;;;;;15.53;66.61;101555.19;5048366;28;19921;-60
2022/09/23 09:59:29;;;;;;;;;;;;;;;15.62;66.82;101548.78;5044396;28;19917;-60
2022/09/23 10:02:12;;;;;;;;;;;;;;;15.67;65.85;101549.03;5052707;28;20355;-60
2022/09/23 10:04:37;;;;;;;;;;;;;;;15.74;65.90;101546.44;5047978;28;20010;-58
2022/09/23 10:07:13;;;;;;;;;;;;;;;15.79;65.52;101549.38;5046287;28;20506;-60
2022/09/23 10:09:39;;;;;;;;;;;;;;;15.83;64.81;101545.31;5043271;28;19951;-59
2022/09/23 10:12:07;;;;;;;;;;;;;;;15.87;64.47;101543.91;5036553;28;19960;-60
2022/09/23 10:14:32;;;;;;;;;;;;;;;15.92;63.96;101533.47;5041636;28;20352;-59
2022/09/23 10:17:04;;;;;;;;;;;;;;;15.97;64.02;101538.28;5043428;28;19924;-58
2022/09/23 10:19:30;;;;;;;;;;;;;;;16.04;63.93;101536.50;5043989;28;19919;-58
2022/09/23 10:21:58;;;;;;;;;;;;;;;16.10;62.96;101538.41;5042332;28;19995;-60
2022/09/23 10:24:25;;;;;;;;;;;;;;;16.19;63.17;101526.56;5045014;28;19928;-60
2022/09/23 10:27:10;;;;;;;;;;;;;;;16.25;62.24;101533.00;5048458;28;19923;-59
2022/09/23 10:29:37;;;;;;;;;;;;;;;16.27;61.84;101537.16;5045576;28;19917;-59
2022/09/23 10:32:12;;;;;;;;;;;;;;;16.29;61.76;101531.59;5045227;28;19916;-60
2022/09/23 10:34:41;;;;;;;;;;;;;;;16.34;61.98;101527.31;5043196;28;20487;-61
2022/09/23 10:37:13;;;;;;;;;;;;;;;16.40;61.65;101533.75;5042735;28;19923;-59
2022/09/23 10:47:59;;;;;;;;;;;;;;;16.62;60.00;101537.28;5043506;28;20283;-60
2022/09/23 10:50:32;;;;;;;;;;;;;;;16.61;59.36;101531.06;5047651;28;19913;-58
2022/09/23 10:53:04;;;;;;;;;;;;;;;16.63;59.76;101530.88;5042449;28;20373;-60
2022/09/23 10:55:29;;;;;;;;;;;;;;;16.70;59.77;101534.47;5039731;28;19917;-60
2022/09/23 10:58:06;;;;;;;;;;;;;;;16.76;60.00;101533.69;5046269;28;19920;-60
2022/09/23 11:00:39;;;;;;;;;;;;;;;16.75;58.62;101525.84;5043603;28;19972;-60
2022/09/23 11:03:12;;;;;;;;;;;;;;;16.75;58.72;101525.84;5047805;28;19913;-60
2022/09/23 11:05:46;;;;;;;;;;;;;;;16.80;59.15;101526.09;5050734;28;19917;-61
2022/09/23 11:08:30;;;;;;;;;;;;;;;16.85;59.23;101521.81;5042741;28;20334;-60
2022/09/23 11:11:02;;;;;;;;;;;;;;;16.90;58.98;101526.59;5043548;28;19920;-60
2022/09/23 11:13:33;;;;;;;;;;;;;;;16.97;59.06;101514.88;5048020;28;19920;-61
2022/09/23 11:16:31;;;;;;;;;;;;;;;17.09;59.37;101523.22;5044572;28;19970;-58
2022/09/23 11:19:15;;;;;;;;;;;;;;;17.23;59.40;101513.38;5036191;28;19944;-60
2022/09/23 11:22:03;;;;;;;;;;;;;;;17.33;59.39;101519.22;5044244;28;19930;-60
2022/09/23 11:24:30;;;;;;;;;;;;;;;17.37;58.34;101509.75;5042373;28;19928;-60
2022/09/23 11:26:55;;;;;;;;;;;;;;;17.36;57.04;101510.78;5041585;28;19971;-58
2022/09/23 11:29:41;;;;;;;;;;;;;;;17.36;57.24;101508.09;5045285;28;19960;-59
2022/09/23 11:32:14;;;;;;;;;;;;;;;17.39;57.42;101505.03;5043361;28;20460;-59
2022/09/23 11:34:58;;;;;;;;;;;;;;;17.49;58.00;101505.47;5045458;28;20307;-56
2022/09/23 11:37:26;;;;;;;;;;;;;;;17.56;57.37;101509.00;5043153;28;19913;-60
2022/09/23 11:39:56;;;;;;;;;;;;;;;17.56;56.46;101510.88;5049157;28;19924;-59
2022/09/23 11:42:24;;;;;;;;;;;;;;;17.55;56.36;101501.16;5047342;28;20486;-58
2022/09/23 11:44:59;;;;;;;;;;;;;;;17.54;56.30;101503.00;5045710;28;19935;-60
2022/09/23 11:47:33;;;;;;;;;;;;;;;17.57;55.91;101501.78;5042037;28;19920;-59
2022/09/23 11:50:01;;;;;;;;;;;;;;;17.59;56.34;101497.03;5052875;28;20360;-58
2022/09/23 11:52:29;;;;;;;;;;;;;;;17.57;55.76;101494.53;5045670;28;20372;-58
2022/09/23 11:54:54;;;;;;;;;;;;;;;17.60;56.89;101482.56;5047934;28;20529;-57
2022/09/23 11:57:38;;;;;;;;;;;;;;;17.73;56.81;101492.59;5047680;28;20005;-56
2022/09/23 12:00:06;;;;;;;;;;;;;;;17.74;55.92;101489.69;5038169;28;20395;-60
2022/09/23 12:02:52;;;;;;;;;;;;;;;17.79;55.97;101487.22;5037025;28;19913;-59
2022/09/23 12:05:21;;;;;;;;;;;;;;;17.86;55.89;101484.56;5049952;28;19924;-58
2022/09/23 12:07:52;;;;;;;;;;;;;;;17.92;55.64;101481.03;5049322;28;20011;-59
2022/09/23 12:10:19;;;;;;;;;;;;;;;17.94;55.54;101481.69;5053883;28;19917;-59
2022/09/23 12:13:07;;;;;;;;;;;;;;;17.96;55.83;101479.63;5054767;28;19916;-59
2022/09/23 12:15:50;;;;;;;;;;;;;;;18.01;55.62;101481.72;5047122;28;20469;-59
2022/09/23 12:18:34;;;;;;;;;;;;;;;17.91;53.91;101480.22;5051400;28;19924;-59
2022/09/23 12:20:59;;;;;;;;;;;;;;;17.84;53.53;101479.38;5055419;28;19916;-60
2022/09/23 12:23:45;;;;;;;;;;;;;;;17.79;52.91;101479.16;5047098;28;19913;-60
2022/09/23 12:26:22;;;;;;;;;;;;;;;17.75;53.06;101483.28;5039829;28;20499;-60
2022/09/23 12:28:48;;;;;;;;;;;;;;;17.74;52.74;101478.13;5057040;28;19913;-58
2022/09/23 12:31:22;;;;;;;;;;;;;;;17.75;52.82;101477.09;5050082;28;19917;-59
2022/09/23 12:33:54;;;;;;;;;;;;;;;17.75;53.00;101477.09;5046104;28;19939;-60
2022/09/23 12:36:29;;;;;;;;;;;;;;;17.73;52.47;101473.78;5048546;28;20391;-57
2022/09/23 12:38:54;;;;;;;;;;;;;;;17.74;52.98;101468.19;5049361;28;19917;-59
2022/09/23 12:41:20;;;;;;;;;;;;;;;17.71;52.66;101459.72;5049448;28;19979;-59
2022/09/23 12:43:50;;;;;;;;;;;;;;;17.63;52.65;101463.38;5049340;28;19913;-59
2022/09/23 12:46:16;;;;;;;;;;;;;;;17.58;52.77;101463.97;5050290;28;19931;-59
2022/09/23 12:49:00;;;;;;;;;;;;;;;17.57;52.92;101467.69;5051356;28;20391;-59
2022/09/23 12:51:26;;;;;;;;;;;;;;;17.60;53.63;101459.22;5047900;28;20012;-58
2022/09/23 12:53:54;;;;;;;;;;;;;;;17.64;53.48;101460.50;5050875;28;19939;-59
2022/09/23 12:56:26;;;;;;;;;;;;;;;17.67;53.56;101464.69;5053748;28;19909;-59
2022/09/23 12:59:10;;;;;;;;;;;;;;;17.64;53.58;101460.50;5048488;28;19913;-58